Time;durP1;ratioP1;P1;durP2;ratioP2;P2;SDS_P1;SDS_P2;PMS_P1;PMS_P2;Temp;Humidity;BMP_temperature;BMP_pressure;BME280_temperature;BME280_humidity;BME280_pressure;Samples;Min_cycle;Max_cycle;Signal;HPM_P1;HPM_P2
2022/02/25 00:00:37;;;;;;;1.48;0.70;;;2.90;99.90;;;;;;5056115;28;20315;-82
2022/02/25 00:03:04;;;;;;;2.20;1.10;;;2.80;99.90;;;;;;5055935;28;20202;-82
2022/02/25 00:05:33;;;;;;;0.73;0.73;;;2.80;99.90;;;;;;5055828;28;20209;-83
2022/02/25 00:08:00;;;;;;;4.70;2.58;;;2.80;99.90;;;;;;5055721;28;20234;-83
2022/02/25 00:10:27;;;;;;;1.85;1.85;;;2.90;99.90;;;;;;5057079;28;20703;-83
2022/02/25 00:12:54;;;;;;;1.15;1.05;;;2.80;99.90;;;;;;5054841;28;20203;-84
2022/02/25 00:15:20;;;;;;;2.58;0.95;;;2.90;99.90;;;;;;5054368;28;20202;-83
2022/02/25 00:17:47;;;;;;;0.90;0.77;;;2.80;99.90;;;;;;5054927;28;20697;-82
2022/02/25 00:20:15;;;;;;;2.13;1.20;;;2.80;99.90;;;;;;5054736;28;20714;-83
2022/02/25 00:22:43;;;;;;;1.20;1.10;;;2.80;99.90;;;;;;5054646;28;20585;-82
2022/02/25 00:25:12;;;;;;;1.23;1.13;;;2.80;99.90;;;;;;5054510;28;20584;-84
2022/02/25 00:27:39;;;;;;;1.35;0.77;;;2.70;99.90;;;;;;5054554;28;20210;-83
2022/02/25 00:30:07;;;;;;;0.88;0.70;;;2.70;99.90;;;;;;5054389;28;20849;-84
2022/02/25 00:32:34;;;;;;;2.65;1.25;;;2.60;99.90;;;;;;5057781;28;20303;-85
2022/02/25 00:35:02;;;;;;;2.35;1.00;;;2.70;99.90;;;;;;5059263;28;20271;-82
2022/02/25 00:37:34;;;;;;;0.90;0.90;;;2.70;99.90;;;;;;5056655;28;20201;-83
2022/02/25 00:42:38;;;;;;;1.13;0.68;;;2.70;99.90;;;;;;5077480;28;20276;-84
2022/02/25 00:45:16;;;;;;;0.85;0.85;;;2.70;99.90;;;;;;5081864;28;20208;-84
2022/02/25 00:47:46;;;;;;;2.25;2.05;;;2.70;99.90;;;;;;5081786;28;20215;-84
2022/02/25 00:50:19;;;;;;;1.20;1.20;;;2.70;99.90;;;;;;5080238;28;20222;-84
2022/02/25 00:52:47;;;;;;;1.55;1.08;;;2.60;99.90;;;;;;5081154;28;20605;-83
2022/02/25 00:55:18;;;;;;;0.90;0.90;;;2.60;99.90;;;;;;5081545;28;20214;-85
2022/02/25 00:57:57;;;;;;;0.98;0.98;;;2.60;99.90;;;;;;5081088;28;20213;-84
2022/02/25 01:00:45;;;;;;;2.63;1.13;;;2.50;99.90;;;;;;5077107;28;20767;-84
2022/02/25 01:03:12;;;;;;;0.98;0.98;;;2.50;99.90;;;;;;5081256;28;20694;-84
2022/02/25 01:05:39;;;;;;;1.50;1.35;;;2.40;99.90;;;;;;5079852;28;20825;-84
2022/02/25 01:08:20;;;;;;;1.10;0.95;;;2.40;99.90;;;;;;5080685;28;20207;-84
2022/02/25 01:10:55;;;;;;;1.75;1.00;;;2.40;99.90;;;;;;5079607;28;20220;-84
2022/02/25 01:13:47;;;;;;;0.70;0.70;;;2.40;99.90;;;;;;5081120;28;20191;-84
2022/02/25 01:16:24;;;;;;;1.20;1.20;;;2.30;99.90;;;;;;5060559;28;20226;-84
2022/02/25 01:18:57;;;;;;;0.90;0.90;;;2.30;99.90;;;;;;5062751;28;20221;-84
2022/02/25 01:21:46;;;;;;;0.80;0.80;;;2.20;99.90;;;;;;5079709;28;20236;-84
2022/02/25 01:24:14;;;;;;;0.90;0.90;;;2.20;99.90;;;;;;5080184;28;20253;-85
2022/02/25 01:26:47;;;;;;;0.93;0.90;;;2.20;99.90;;;;;;5080365;28;20205;-84
2022/02/25 01:29:22;;;;;;;3.13;0.90;;;2.10;99.90;;;;;;5080372;28;20621;-85
2022/02/25 01:31:51;;;;;;;2.67;1.35;;;2.10;99.90;;;;;;5079603;28;20225;-84
2022/02/25 01:34:25;;;;;;;2.28;1.13;;;2.00;99.90;;;;;;5078971;28;20198;-84
2022/02/25 01:36:57;;;;;;;2.58;1.13;;;2.00;99.90;;;;;;5080700;28;20197;-84
2022/02/25 01:39:24;;;;;;;1.83;1.23;;;1.90;99.90;;;;;;5080265;28;20198;-84
2022/02/25 01:41:52;;;;;;;1.70;1.70;;;1.90;99.90;;;;;;5080063;28;20232;-84
2022/02/25 01:44:42;;;;;;;1.77;1.10;;;1.90;99.90;;;;;;5079680;28;20201;-84
2022/02/25 01:47:17;;;;;;;1.60;1.48;;;1.90;99.90;;;;;;5080134;28;20209;-84
2022/02/25 01:49:51;;;;;;;0.70;0.70;;;1.90;99.90;;;;;;5079500;28;20629;-84
2022/02/25 01:52:24;;;;;;;0.70;0.70;;;1.90;99.90;;;;;;5078631;28;20213;-85
2022/02/25 01:55:00;;;;;;;0.90;0.90;;;1.80;99.90;;;;;;5080174;28;20575;-85
2022/02/25 01:57:34;;;;;;;0.80;0.80;;;1.80;99.90;;;;;;5079975;28;20851;-83
2022/02/25 02:00:10;;;;;;;2.95;1.23;;;1.80;99.90;;;;;;5079680;28;20228;-84
2022/02/25 02:02:42;;;;;;;3.38;1.13;;;1.80;99.90;;;;;;5080393;28;20642;-85
2022/02/25 02:05:09;;;;;;;1.25;1.15;;;1.70;99.90;;;;;;5080539;28;20210;-85
2022/02/25 02:07:42;;;;;;;2.60;1.00;;;1.70;99.90;;;;;;5079753;28;20210;-84
2022/02/25 02:10:11;;;;;;;2.50;1.25;;;1.70;99.90;;;;;;5080151;28;20272;-85
2022/02/25 02:12:45;;;;;;;1.50;1.13;;;1.70;99.90;;;;;;5079810;28;20577;-84
2022/02/25 02:15:20;;;;;;;3.25;1.70;;;1.70;99.90;;;;;;5059728;28;20206;-84
2022/02/25 02:17:48;;;;;;;1.60;0.80;;;1.70;99.90;;;;;;5062290;28;20322;-84
2022/02/25 02:20:21;;;;;;;0.73;0.73;;;1.60;99.90;;;;;;5082071;28;20714;-84
2022/02/25 02:22:54;;;;;;;3.33;1.40;;;1.60;99.90;;;;;;5082394;28;20198;-84
2022/02/25 02:25:24;;;;;;;2.20;1.05;;;1.60;99.90;;;;;;5080071;28;20623;-85
2022/02/25 02:28:23;;;;;;;1.33;0.95;;;1.60;99.90;;;;;;5076933;28;20201;-84
2022/02/25 02:30:53;;;;;;;1.30;1.17;;;1.60;99.90;;;;;;5082374;28;20227;-84
2022/02/25 02:33:21;;;;;;;1.20;1.10;;;1.60;99.90;;;;;;5080377;28;20211;-84
2022/02/25 02:35:50;;;;;;;1.38;1.13;;;1.50;99.90;;;;;;5079467;28;20652;-84
2022/02/25 02:38:26;;;;;;;2.50;1.90;;;1.50;99.90;;;;;;5079456;28;20209;-85
2022/02/25 02:40:53;;;;;;;4.80;1.55;;;1.50;99.90;;;;;;5078293;28;20256;-84
2022/02/25 02:43:23;;;;;;;3.40;2.58;;;1.40;99.90;;;;;;5079436;28;20206;-84
2022/02/25 02:45:53;;;;;;;0.85;0.85;;;1.40;99.90;;;;;;5079035;28;20212;-85
2022/02/25 02:48:23;;;;;;;4.18;1.65;;;1.40;99.90;;;;;;5078832;28;20205;-84
2022/02/25 02:50:52;;;;;;;1.05;0.80;;;1.50;99.90;;;;;;5079336;28;20227;-84
2022/02/25 02:53:29;;;;;;;1.48;1.15;;;1.50;99.90;;;;;;5075622;28;20205;-84
2022/02/25 02:56:02;;;;;;;1.38;1.13;;;1.50;99.90;;;;;;5079420;28;20707;-84
2022/02/25 02:58:29;;;;;;;1.60;1.50;;;1.60;99.90;;;;;;5079021;28;20229;-84
2022/02/25 03:00:56;;;;;;;2.10;1.65;;;1.50;99.90;;;;;;5078489;28;20235;-84
2022/02/25 03:03:25;;;;;;;3.40;1.55;;;1.50;99.90;;;;;;5078335;28;20225;-85
2022/02/25 03:05:53;;;;;;;1.65;1.50;;;1.50;99.90;;;;;;5079082;28;20210;-84
2022/02/25 03:08:20;;;;;;;1.20;1.20;;;1.50;99.90;;;;;;5079160;28;20275;-84
2022/02/25 03:10:51;;;;;;;1.15;1.15;;;1.50;99.90;;;;;;5078403;28;20213;-84
2022/02/25 03:13:23;;;;;;;6.18;1.67;;;1.50;99.90;;;;;;5079068;28;20209;-85
2022/02/25 03:15:55;;;;;;;1.33;1.33;;;1.50;99.90;;;;;;5078806;28;20205;-85
2022/02/25 03:18:21;;;;;;;6.30;1.60;;;1.50;99.90;;;;;;5079722;28;20194;-84
2022/02/25 03:20:50;;;;;;;1.58;1.48;;;1.50;99.90;;;;;;5078795;28;20235;-84
2022/02/25 03:23:18;;;;;;;1.13;1.13;;;1.50;99.90;;;;;;5078750;28;20210;-84
2022/02/25 03:25:47;;;;;;;2.85;1.35;;;1.50;99.90;;;;;;5079064;28;20245;-84
2022/02/25 03:28:20;;;;;;;4.22;1.65;;;1.40;99.90;;;;;;5078807;28;20297;-84
2022/02/25 03:30:50;;;;;;;2.35;1.27;;;1.40;99.90;;;;;;5077981;28;20214;-84
2022/02/25 03:33:19;;;;;;;1.80;1.70;;;1.30;99.90;;;;;;5078913;28;20205;-85
2022/02/25 03:35:50;;;;;;;2.28;2.10;;;1.30;99.90;;;;;;5077801;28;20278;-84
2022/02/25 03:38:18;;;;;;;1.95;1.20;;;1.20;99.90;;;;;;5079006;28;20672;-85
2022/02/25 03:40:47;;;;;;;1.05;0.88;;;1.20;99.90;;;;;;5077786;28;20223;-85
2022/02/25 03:43:18;;;;;;;1.17;1.13;;;1.20;99.90;;;;;;5078443;28;20217;-85
2022/02/25 03:45:45;;;;;;;1.58;1.48;;;1.20;99.90;;;;;;5078647;28;20225;-84
2022/02/25 03:48:12;;;;;;;1.80;1.58;;;1.30;99.90;;;;;;5078577;28;20578;-84
2022/02/25 03:50:42;;;;;;;1.67;1.20;;;1.20;99.90;;;;;;5077572;28;20222;-84
2022/02/25 03:53:23;;;;;;;1.63;1.05;;;1.20;99.90;;;;;;5078772;28;20228;-84
2022/02/25 03:55:53;;;;;;;7.80;1.00;;;1.10;99.90;;;;;;5078452;28;20283;-84
2022/02/25 03:58:22;;;;;;;1.33;1.33;;;1.20;99.90;;;;;;5078586;28;20209;-84
2022/02/25 04:00:56;;;;;;;2.15;1.63;;;1.10;99.90;;;;;;5078366;28;20225;-83
2022/02/25 04:03:24;;;;;;;3.70;1.27;;;1.10;99.90;;;;;;5078667;28;20199;-84
2022/02/25 04:06:07;;;;;;;6.10;1.75;;;1.20;99.90;;;;;;5078302;28;20300;-84
2022/02/25 04:08:34;;;;;;;1.50;1.45;;;1.20;99.90;;;;;;5078629;28;20215;-83
2022/02/25 04:11:01;;;;;;;0.90;0.90;;;1.20;99.90;;;;;;5078206;28;20218;-84
2022/02/25 04:13:31;;;;;;;1.10;1.00;;;1.20;99.90;;;;;;5078629;28;20197;-84
2022/02/25 04:15:59;;;;;;;1.20;0.90;;;1.30;99.90;;;;;;5078313;28;20204;-84
2022/02/25 04:18:27;;;;;;;0.90;0.90;;;1.20;99.90;;;;;;5077930;28;20213;-85
2022/02/25 04:20:54;;;;;;;1.80;1.73;;;1.20;99.90;;;;;;5078036;28;20232;-84
2022/02/25 04:23:21;;;;;;;1.88;1.23;;;1.30;99.90;;;;;;5076737;28;20201;-84
2022/02/25 04:25:48;;;;;;;0.90;0.90;;;1.30;99.90;;;;;;5078295;28;20199;-84
2022/02/25 04:28:17;;;;;;;1.00;0.95;;;1.30;99.90;;;;;;5078510;28;20213;-84
2022/02/25 04:30:53;;;;;;;3.13;1.20;;;1.30;99.90;;;;;;5077368;28;20724;-85
2022/02/25 04:33:20;;;;;;;2.08;1.40;;;1.30;99.90;;;;;;5078281;28;20221;-84
2022/02/25 04:35:49;;;;;;;4.07;1.52;;;1.30;99.90;;;;;;5078353;28;20210;-84
2022/02/25 04:38:16;;;;;;;2.00;1.48;;;1.40;99.90;;;;;;5078380;28;20218;-84
2022/02/25 04:40:46;;;;;;;1.50;1.40;;;1.40;99.90;;;;;;5077012;28;20229;-84
2022/02/25 04:43:15;;;;;;;1.52;1.40;;;1.40;99.90;;;;;;5057972;28;20209;-85
2022/02/25 04:45:44;;;;;;;2.15;1.50;;;1.40;99.90;;;;;;5067573;28;20201;-84
2022/02/25 04:48:12;;;;;;;1.17;1.13;;;1.30;99.90;;;;;;5078172;28;20203;-84
2022/02/25 04:50:39;;;;;;;5.07;1.90;;;1.40;99.90;;;;;;5077347;28;20221;-84
2022/02/25 04:53:06;;;;;;;1.50;1.20;;;1.40;99.90;;;;;;5078270;28;20220;-84
2022/02/25 04:55:33;;;;;;;5.90;1.20;;;1.30;99.90;;;;;;5077910;28;20289;-84
2022/02/25 04:57:59;;;;;;;3.22;1.52;;;1.40;99.90;;;;;;5078217;28;20255;-85
2022/02/25 05:00:26;;;;;;;1.80;1.05;;;1.40;99.90;;;;;;5078663;28;20228;-85
2022/02/25 05:02:53;;;;;;;1.65;1.00;;;1.30;99.90;;;;;;5078207;28;20202;-85
2022/02/25 05:05:22;;;;;;;4.53;1.80;;;1.30;99.90;;;;;;5078653;28;20206;-85
2022/02/25 05:07:58;;;;;;;4.15;3.85;;;1.40;99.90;;;;;;5079442;28;20205;-85
2022/02/25 05:10:26;;;;;;;1.70;1.00;;;1.50;99.90;;;;;;5081549;28;20226;-85
2022/02/25 05:12:56;;;;;;;6.15;3.05;;;1.70;99.90;;;;;;5082116;28;20201;-85
2022/02/25 05:20:58;;;;;;;2.03;1.60;;;2.10;99.90;;;;;;5081986;28;20317;-86
2022/02/25 05:23:25;;;;;;;1.35;1.20;;;2.10;99.90;;;;;;5082112;28;20210;-85
2022/02/25 05:25:52;;;;;;;5.65;1.80;;;2.20;99.90;;;;;;5082473;28;20216;-85
2022/02/25 05:28:19;;;;;;;1.50;1.30;;;2.30;99.90;;;;;;5085385;28;20471;-85
2022/02/25 05:30:46;;;;;;;1.45;1.35;;;2.40;99.90;;;;;;5080746;28;20220;-86
2022/02/25 05:33:13;;;;;;;2.92;2.08;;;2.40;99.90;;;;;;5084729;28;20662;-85
2022/02/25 05:35:40;;;;;;;2.28;1.10;;;2.50;99.90;;;;;;5082076;28;20207;-84
2022/02/25 05:38:08;;;;;;;2.60;1.50;;;2.50;99.90;;;;;;5082156;28;20273;-85
2022/02/25 05:40:43;;;;;;;1.75;1.40;;;2.40;99.90;;;;;;5085961;28;20222;-85
2022/02/25 05:43:09;;;;;;;2.13;1.65;;;2.40;99.90;;;;;;5081676;28;20211;-85
2022/02/25 05:45:36;;;;;;;2.40;1.30;;;2.40;99.90;;;;;;5081980;28;20215;-86
2022/02/25 05:48:04;;;;;;;3.10;2.42;;;2.40;99.90;;;;;;5081235;28;20258;-86
2022/02/25 05:50:31;;;;;;;4.30;2.00;;;2.40;99.90;;;;;;5081314;28;20583;-86
2022/02/25 05:52:58;;;;;;;2.05;1.30;;;2.40;99.90;;;;;;5081872;28;20201;-84
2022/02/25 05:55:26;;;;;;;3.33;3.05;;;2.30;99.90;;;;;;5081186;28;20208;-86
2022/02/25 05:57:54;;;;;;;4.13;1.75;;;2.30;99.90;;;;;;5081332;28;20198;-85
2022/02/25 06:00:22;;;;;;;1.73;1.40;;;2.30;99.90;;;;;;5080693;28;20300;-84
2022/02/25 06:02:50;;;;;;;2.15;1.33;;;2.30;99.90;;;;;;5080975;28;20217;-86
2022/02/25 06:05:24;;;;;;;11.63;2.85;;;2.30;99.90;;;;;;5081754;28;20221;-84
2022/02/25 06:07:54;;;;;;;3.50;1.75;;;2.40;99.90;;;;;;5082043;28;20580;-83
2022/02/25 06:13:28;;;;;;;1.67;1.50;;;2.40;99.90;;;;;;5073666;28;20203;-83
2022/02/25 06:15:57;;;;;;;7.05;1.33;;;2.50;99.90;;;;;;5094384;28;20189;-84
2022/02/25 06:18:24;;;;;;;5.30;3.30;;;2.50;99.90;;;;;;5095540;28;20208;-84
2022/02/25 06:20:51;;;;;;;5.05;2.20;;;2.30;99.90;;;;;;5093916;28;20218;-86
2022/02/25 06:23:21;;;;;;;8.80;3.20;;;2.30;99.90;;;;;;5086414;28;20231;-86
2022/02/25 06:25:48;;;;;;;3.00;1.80;;;2.30;99.90;;;;;;5081218;28;20274;-86
2022/02/25 06:28:15;;;;;;;7.80;3.13;;;2.30;99.90;;;;;;5080891;28;20217;-86
2022/02/25 06:30:44;;;;;;;5.30;2.28;;;2.30;99.90;;;;;;5082999;28;20253;-85
2022/02/25 06:33:10;;;;;;;1.90;1.45;;;2.30;99.90;;;;;;5080321;28;20208;-85
2022/02/25 06:35:37;;;;;;;1.70;1.50;;;2.20;99.90;;;;;;5080545;28;20627;-85
2022/02/25 06:38:04;;;;;;;4.00;1.90;;;2.20;99.90;;;;;;5080604;28;20204;-85
2022/02/25 06:40:49;;;;;;;1.67;1.42;;;2.10;99.90;;;;;;5082351;28;20232;-85
2022/02/25 06:43:16;;;;;;;3.20;1.55;;;2.00;99.90;;;;;;5089748;28;20708;-83
2022/02/25 06:45:44;;;;;;;2.13;1.23;;;1.90;99.90;;;;;;5089317;28;20215;-85
2022/02/25 06:48:11;;;;;;;3.95;1.65;;;1.80;99.90;;;;;;5089147;28;20261;-84
2022/02/25 06:50:38;;;;;;;1.58;1.42;;;1.90;99.90;;;;;;5088074;28;20229;-83
2022/02/25 06:53:28;;;;;;;3.20;1.80;;;1.80;99.90;;;;;;5089436;28;20201;-84
2022/02/25 06:55:56;;;;;;;2.50;2.30;;;1.80;99.90;;;;;;5087856;28;20228;-85
2022/02/25 06:58:25;;;;;;;6.07;1.52;;;1.90;99.90;;;;;;5087338;28;20266;-85
2022/02/25 07:00:53;;;;;;;1.75;1.65;;;2.10;99.90;;;;;;5087284;28;20226;-82
2022/02/25 07:03:20;;;;;;;4.63;1.65;;;2.00;99.90;;;;;;5090487;28;20208;-82
2022/02/25 07:05:47;;;;;;;6.47;2.40;;;2.00;99.90;;;;;;5088173;28;20209;-84
2022/02/25 07:08:14;;;;;;;7.97;2.17;;;2.10;99.90;;;;;;5087904;28;20720;-83
2022/02/25 07:10:41;;;;;;;4.30;2.35;;;2.20;99.90;;;;;;5086966;28;20229;-83
2022/02/25 07:13:10;;;;;;;5.88;2.78;;;2.30;99.90;;;;;;5085764;28;20224;-83
2022/02/25 07:15:37;;;;;;;5.00;3.25;;;2.40;99.90;;;;;;5087825;28;20223;-85
2022/02/25 07:18:05;;;;;;;3.55;2.45;;;2.50;99.90;;;;;;5086876;28;20212;-85
2022/02/25 07:20:33;;;;;;;3.75;2.33;;;2.50;99.90;;;;;;5086163;28;20225;-82
2022/02/25 07:23:00;;;;;;;4.07;1.90;;;2.60;99.90;;;;;;5084960;28;20212;-84
2022/02/25 07:25:27;;;;;;;3.38;2.28;;;2.60;99.90;;;;;;5083475;28;20300;-84
2022/02/25 07:41:50;;;;;;;2.60;1.83;;;2.80;99.90;;;;;;5078603;28;20745;-85
2022/02/25 08:10:00;;;;;;;14.07;2.55;;;3.30;99.90;;;;;;4997669;28;20216;-86
2022/02/25 08:15:49;;;;;;;1.85;1.38;;;3.30;99.90;;;;;;5023109;28;20191;-85
2022/02/25 08:18:16;;;;;;;2.67;0.95;;;3.40;99.90;;;;;;5049009;28;20881;-84
2022/02/25 08:20:44;;;;;;;2.60;1.80;;;3.40;99.90;;;;;;5071343;28;20230;-85
2022/02/25 08:26:00;;;;;;;1.90;1.80;;;3.60;99.90;;;;;;5068805;28;20214;-84
2022/02/25 08:28:43;;;;;;;4.40;1.60;;;3.60;99.90;;;;;;5076648;28;20234;-85
2022/02/25 08:31:11;;;;;;;2.60;1.70;;;3.50;99.90;;;;;;5070343;28;20235;-85
2022/02/25 08:33:41;;;;;;;1.58;1.52;;;3.70;99.90;;;;;;5076079;28;20703;-85
2022/02/25 08:36:08;;;;;;;4.45;2.15;;;3.80;99.90;;;;;;5076538;28;20261;-87
2022/02/25 08:38:35;;;;;;;2.20;2.03;;;3.70;99.90;;;;;;5083767;28;20212;-82
2022/02/25 08:41:04;;;;;;;6.63;1.50;;;3.90;99.90;;;;;;5063998;28;20819;-85
2022/02/25 08:43:31;;;;;;;2.15;1.60;;;3.80;99.90;;;;;;5060530;28;20233;-86
2022/02/25 08:45:58;;;;;;;6.28;2.45;;;3.80;99.90;;;;;;5068183;28;20196;-86
2022/02/25 08:48:30;;;;;;;3.75;1.85;;;3.70;99.90;;;;;;5081285;28;20207;-83
2022/02/25 08:50:57;;;;;;;8.13;1.38;;;3.70;99.90;;;;;;5081127;28;20223;-83
2022/02/25 08:53:24;;;;;;;3.60;0.95;;;3.70;99.90;;;;;;5082520;28;20211;-85
2022/02/25 08:55:51;;;;;;;3.90;1.98;;;3.70;99.90;;;;;;5082084;28;20241;-82
2022/02/25 08:58:20;;;;;;;1.80;1.55;;;3.70;99.90;;;;;;5081905;28;20260;-85
2022/02/25 09:00:47;;;;;;;4.78;1.25;;;3.80;99.90;;;;;;5081103;28;20231;-84
2022/02/25 09:03:15;;;;;;;4.72;1.67;;;3.90;99.90;;;;;;5083384;28;20228;-84
2022/02/25 09:05:41;;;;;;;5.60;1.75;;;3.90;99.90;;;;;;5082734;28;20204;-84
2022/02/25 09:08:08;;;;;;;6.93;1.90;;;3.90;99.90;;;;;;5094792;28;20204;-83
2022/02/25 09:10:35;;;;;;;3.17;1.42;;;4.00;99.90;;;;;;5088729;28;20251;-83
2022/02/25 09:13:04;;;;;;;3.72;1.02;;;4.20;99.90;;;;;;5090355;28;20204;-84
2022/02/25 09:15:38;;;;;;;3.88;2.05;;;4.20;99.90;;;;;;5090508;28;20205;-83
2022/02/25 09:18:05;;;;;;;14.65;1.70;;;4.20;99.90;;;;;;5085118;28;20223;-83
2022/02/25 09:20:32;;;;;;;2.08;1.63;;;4.30;99.90;;;;;;5081532;28;20607;-83
2022/02/25 09:22:59;;;;;;;1.73;1.55;;;4.30;99.90;;;;;;5085589;28;20232;-83
2022/02/25 09:25:29;;;;;;;3.25;1.20;;;4.30;99.90;;;;;;5093254;28;20551;-85
2022/02/25 09:28:05;;;;;;;1.48;1.00;;;4.20;99.90;;;;;;5086989;28;20218;-85
2022/02/25 09:30:33;;;;;;;5.28;1.83;;;4.30;99.90;;;;;;5082166;28;20228;-85
2022/02/25 09:33:00;;;;;;;2.65;1.63;;;4.30;99.90;;;;;;5085859;28;20193;-84
2022/02/25 09:35:27;;;;;;;0.82;0.80;;;4.40;99.90;;;;;;5088504;28;20267;-85
2022/02/25 09:37:54;;;;;;;1.25;1.20;;;4.50;99.90;;;;;;5088797;28;20219;-84
2022/02/25 09:40:22;;;;;;;2.58;1.55;;;4.50;99.90;;;;;;5089406;28;20246;-84
2022/02/25 09:42:49;;;;;;;2.67;1.13;;;4.70;99.90;;;;;;5089008;28;20693;-84
2022/02/25 09:45:20;;;;;;;1.25;1.15;;;4.70;99.90;;;;;;5089669;28;20273;-84
2022/02/25 09:48:11;;;;;;;4.18;1.48;;;4.70;99.20;;;;;;5089427;28;20211;-85
2022/02/25 09:50:42;;;;;;;2.10;1.20;;;4.90;99.70;;;;;;5087884;28;20220;-85
2022/02/25 09:53:09;;;;;;;3.40;2.03;;;5.10;99.20;;;;;;5067771;28;20257;-85
2022/02/25 09:55:36;;;;;;;3.42;1.30;;;5.20;99.40;;;;;;5083369;28;20212;-85
2022/02/25 09:58:06;;;;;;;3.38;2.50;;;5.30;98.30;;;;;;5085781;28;20200;-84
2022/02/25 10:00:35;;;;;;;2.33;1.23;;;5.40;98.50;;;;;;5085485;28;20231;-84
2022/02/25 10:03:05;;;;;;;1.98;1.30;;;5.50;98.20;;;;;;5084182;28;20411;-84
2022/02/25 10:05:35;;;;;;;1.27;1.15;;;5.50;97.50;;;;;;5086198;28;20205;-83
2022/02/25 10:08:10;;;;;;;1.60;0.90;;;5.40;96.50;;;;;;5087099;28;20197;-84
2022/02/25 10:10:45;;;;;;;3.97;1.50;;;5.50;96.80;;;;;;5076101;28;20232;-82
2022/02/25 10:13:14;;;;;;;3.78;2.03;;;5.40;96.60;;;;;;5076094;28;20569;-83
2022/02/25 10:18:44;;;;;;;2.97;1.27;;;5.50;96.30;;;;;;5086897;28;20242;-82
2022/02/25 10:21:18;;;;;;;8.15;1.08;;;5.40;96.40;;;;;;5089655;28;20254;-85
2022/02/25 10:23:47;;;;;;;1.17;0.90;;;5.40;96.70;;;;;;5085150;28;20308;-86
2022/02/25 10:26:16;;;;;;;1.90;0.77;;;5.50;96.40;;;;;;5083775;28;20265;-86
2022/02/25 10:28:48;;;;;;;4.03;2.22;;;5.40;96.30;;;;;;5083694;28;20905;-86
2022/02/25 10:31:50;;;;;;;1.75;1.20;;;5.60;96.20;;;;;;5081085;28;20221;-85
2022/02/25 10:34:20;;;;;;;2.17;1.75;;;5.90;95.50;;;;;;5075849;28;20205;-84
2022/02/25 10:36:55;;;;;;;2.65;1.13;;;5.90;95.30;;;;;;5077777;28;20213;-83
2022/02/25 10:39:24;;;;;;;0.90;0.90;;;5.90;96.10;;;;;;5086328;28;20204;-83
2022/02/25 10:42:23;;;;;;;3.00;1.15;;;5.90;96.10;;;;;;5085021;28;20671;-85
2022/02/25 10:44:55;;;;;;;1.80;0.77;;;5.90;96.00;;;;;;5084235;28;20201;-83
2022/02/25 10:47:23;;;;;;;1.40;1.15;;;5.90;94.70;;;;;;5086995;28;20228;-84
2022/02/25 10:50:00;;;;;;;1.17;1.08;;;5.90;94.90;;;;;;5087627;28;20205;-84
2022/02/25 10:52:32;;;;;;;2.05;1.90;;;5.70;93.90;;;;;;5085933;28;20205;-83
2022/02/25 10:55:15;;;;;;;1.55;1.08;;;5.80;95.00;;;;;;5075963;28;20224;-86
2022/02/25 10:57:42;;;;;;;4.28;0.75;;;6.10;95.10;;;;;;5077261;28;20226;-83
2022/02/25 11:00:17;;;;;;;2.95;2.10;;;6.20;93.90;;;;;;5076793;28;20225;-85
2022/02/25 11:02:47;;;;;;;6.88;1.67;;;6.30;93.40;;;;;;5061748;28;20232;-84
2022/02/25 11:05:16;;;;;;;5.13;1.30;;;6.60;94.00;;;;;;5070127;28;20227;-85
2022/02/25 11:07:46;;;;;;;2.03;1.30;;;6.70;94.30;;;;;;5075257;28;20570;-83
2022/02/25 11:10:16;;;;;;;1.15;0.80;;;6.70;92.80;;;;;;5076303;28;20221;-87
2022/02/25 11:12:45;;;;;;;2.63;2.25;;;6.70;92.80;;;;;;5076499;28;20219;-84
2022/02/25 11:15:15;;;;;;;4.20;1.77;;;7.20;92.70;;;;;;5076557;28;20213;-86
2022/02/25 11:17:44;;;;;;;3.15;1.58;;;7.80;90.60;;;;;;5078488;28;20304;-86
2022/02/25 11:20:14;;;;;;;3.53;1.27;;;7.80;89.80;;;;;;5072374;28;20256;-86
2022/02/25 11:22:42;;;;;;;1.63;1.25;;;7.60;90.00;;;;;;5064781;28;20670;-83
2022/02/25 11:25:14;;;;;;;1.48;1.30;;;7.90;89.60;;;;;;5075067;28;20209;-83
2022/02/25 11:27:42;;;;;;;3.22;1.30;;;8.20;87.60;;;;;;5063267;28;20214;-83
2022/02/25 11:30:10;;;;;;;0.95;0.73;;;8.40;85.40;;;;;;5057759;28;20241;-83
2022/02/25 11:32:41;;;;;;;5.88;1.10;;;8.80;86.50;;;;;;5075097;28;20209;-81
2022/02/25 11:35:19;;;;;;;3.45;1.80;;;8.20;84.80;;;;;;5074217;28;20219;-83
2022/02/25 11:37:48;;;;;;;2.63;1.50;;;7.00;86.00;;;;;;5076370;28;20205;-82
2022/02/25 11:40:17;;;;;;;0.80;0.80;;;6.30;88.50;;;;;;5075062;28;20226;-84
2022/02/25 11:42:48;;;;;;;0.77;0.77;;;6.70;90.00;;;;;;5075847;28;20598;-82
2022/02/25 11:45:20;;;;;;;0.93;0.73;;;7.50;88.90;;;;;;5077807;28;20201;-82
2022/02/25 11:47:55;;;;;;;1.60;1.25;;;7.60;86.80;;;;;;5065606;28;20197;-82
2022/02/25 11:50:34;;;;;;;4.03;1.30;;;7.80;83.30;;;;;;5081196;28;20216;-80
2022/02/25 11:53:01;;;;;;;4.50;1.50;;;7.90;84.60;;;;;;5076526;28;20661;-83
2022/02/25 11:55:35;;;;;;;0.80;0.80;;;6.80;84.90;;;;;;5075697;28;20212;-84
2022/02/25 11:58:39;;;;;;;1.70;1.10;;;6.40;86.40;;;;;;5069507;28;20565;-85
2022/02/25 12:01:07;;;;;;;5.68;1.15;;;6.40;88.40;;;;;;5056927;28;20225;-82
2022/02/25 12:03:35;;;;;;;4.13;0.80;;;6.50;88.70;;;;;;5070039;28;20232;-82
2022/02/25 12:06:03;;;;;;;1.98;0.90;;;6.30;87.20;;;;;;5071648;28;20213;-83
2022/02/25 12:08:32;;;;;;;0.95;0.95;;;6.20;89.50;;;;;;5068248;28;20201;-83
2022/02/25 12:11:22;;;;;;;1.55;1.10;;;6.30;90.20;;;;;;5074545;28;20240;-83
2022/02/25 12:13:49;;;;;;;4.03;1.42;;;6.20;89.60;;;;;;5069699;28;20208;-81
2022/02/25 12:16:27;;;;;;;2.28;0.90;;;6.40;88.80;;;;;;5075395;28;20209;-82
2022/02/25 12:19:07;;;;;;;1.17;0.85;;;6.30;88.80;;;;;;5059476;28;20203;-83
2022/02/25 12:21:42;;;;;;;1.20;0.90;;;7.10;88.20;;;;;;5076033;28;20229;-82
2022/02/25 12:24:13;;;;;;;3.00;1.45;;;6.70;85.20;;;;;;5074146;28;20352;-83
2022/02/25 12:26:42;;;;;;;3.08;1.20;;;6.40;86.60;;;;;;5074545;28;20289;-82
2022/02/25 12:29:18;;;;;;;1.73;0.70;;;6.10;87.10;;;;;;5074969;28;20654;-82
2022/02/25 12:31:47;;;;;;;1.23;1.08;;;6.30;88.20;;;;;;5074185;28;20227;-82
2022/02/25 12:34:22;;;;;;;1.17;1.15;;;6.30;88.60;;;;;;5072832;28;20618;-84
2022/02/25 12:36:51;;;;;;;3.70;2.25;;;6.40;90.00;;;;;;5077461;28;20208;-83
2022/02/25 12:39:24;;;;;;;3.28;1.80;;;6.40;89.60;;;;;;5077377;28;20197;-83
2022/02/25 12:49:32;;;;;;;7.13;1.85;;;7.20;90.60;;;;;;4946265;29;20221;-88
2022/02/25 12:52:03;;;;;;;2.15;1.60;;;8.10;89.10;;;;;;4945555;29;20233;-82
2022/02/25 12:54:31;;;;;;;2.90;1.55;;;8.50;84.30;;;;;;4972800;28;20217;-83
2022/02/25 12:57:45;;;;;;;10.13;2.15;;;8.70;83.80;;;;;;5062595;28;20205;-88
2022/02/25 13:00:16;;;;;;;3.47;1.23;;;9.00;84.80;;;;;;5061357;28;20202;-89
2022/02/25 13:08:50;;;;;;;1.65;1.25;;;7.80;86.70;;;;;;4983197;28;20226;-87
2022/02/25 13:11:21;;;;;;;2.35;1.52;;;7.30;86.80;;;;;;4984468;28;20255;-87
2022/02/25 13:13:48;;;;;;;4.90;1.38;;;6.90;88.20;;;;;;4985116;28;20361;-88
2022/02/25 13:16:24;;;;;;;2.17;1.55;;;6.80;88.60;;;;;;4985542;28;20208;-85
2022/02/25 13:19:02;;;;;;;5.35;1.42;;;6.80;89.00;;;;;;5019994;28;20209;-88
2022/02/25 13:21:29;;;;;;;2.80;1.60;;;6.70;89.10;;;;;;5018334;28;20263;-86
2022/02/25 13:24:00;;;;;;;1.52;1.42;;;6.40;89.40;;;;;;5050547;28;20313;-87
2022/02/25 13:26:28;;;;;;;2.88;1.50;;;6.90;89.90;;;;;;5061852;28;20241;-87
2022/02/25 13:28:55;;;;;;;5.20;1.40;;;7.40;89.00;;;;;;5059405;28;20288;-80
2022/02/25 13:31:27;;;;;;;2.33;1.10;;;8.00;88.70;;;;;;5058333;28;20225;-85
2022/02/25 13:33:54;;;;;;;4.97;1.65;;;8.20;85.50;;;;;;5060416;28;20206;-86
2022/02/25 13:36:23;;;;;;;1.85;1.52;;;7.90;84.60;;;;;;5055478;28;20554;-86
2022/02/25 13:38:57;;;;;;;3.53;1.60;;;7.80;86.10;;;;;;5059600;28;20209;-87
2022/02/25 13:41:32;;;;;;;0.80;0.80;;;7.60;87.10;;;;;;5058933;28;20233;-87
2022/02/25 13:43:59;;;;;;;11.88;2.58;;;7.60;86.80;;;;;;5058075;28;20217;-87
2022/02/25 13:46:27;;;;;;;3.60;2.08;;;7.70;86.60;;;;;;5058734;28;20205;-87
2022/02/25 13:54:36;;;;;;;5.00;1.90;;;6.00;93.70;;;;;;5057092;28;20216;-81
2022/02/25 13:57:04;;;;;;;2.05;1.38;;;5.40;95.80;;;;;;5056813;28;20214;-81
2022/02/25 13:59:42;;;;;;;1.15;1.13;;;5.10;97.60;;;;;;5057255;28;20221;-81
2022/02/25 14:02:11;;;;;;;3.45;1.98;;;5.30;98.30;;;;;;5056752;28;20845;-81
2022/02/25 14:04:38;;;;;;;4.53;1.15;;;5.20;98.50;;;;;;5059297;28;20229;-86
2022/02/25 14:07:07;;;;;;;3.45;1.75;;;5.00;99.20;;;;;;5060441;28;20197;-86
2022/02/25 14:09:37;;;;;;;0.70;0.68;;;4.70;99.90;;;;;;5059172;28;20205;-87
2022/02/25 14:12:07;;;;;;;4.93;1.23;;;4.60;99.90;;;;;;5058883;28;20222;-85
2022/02/25 14:14:36;;;;;;;3.35;1.45;;;4.60;99.90;;;;;;5057562;28;20659;-84
2022/02/25 14:17:04;;;;;;;1.73;1.38;;;4.80;99.90;;;;;;5056998;28;20198;-84
2022/02/25 14:19:31;;;;;;;1.55;1.42;;;5.00;99.90;;;;;;5056963;28;20212;-83
2022/02/25 14:22:10;;;;;;;2.78;1.25;;;5.10;99.90;;;;;;5057778;28;20229;-86
2022/02/25 14:24:44;;;;;;;2.75;2.00;;;5.00;99.90;;;;;;5058039;28;20221;-86
2022/02/25 14:27:14;;;;;;;2.33;1.10;;;5.20;99.90;;;;;;5057961;28;20209;-86
2022/02/25 14:29:42;;;;;;;1.70;0.75;;;5.40;99.90;;;;;;5060270;28;20206;-86
2022/02/25 14:32:13;;;;;;;3.35;1.27;;;5.40;99.90;;;;;;5061151;28;20226;-85
2022/02/25 14:34:43;;;;;;;7.00;1.10;;;5.30;99.90;;;;;;5059971;28;20201;-87